sensor_id;sensor_type;location;lat;lon;timestamp;P1;durP1;ratioP1;P2;durP2;ratioP2
23590;SDS011;11973;52.098;7.582;2023-05-10T03:45:52;5.78;;;5.57;;
23590;SDS011;11973;52.098;7.582;2023-05-10T03:48:18;6.22;;;6.05;;
23590;SDS011;11973;52.098;7.582;2023-05-10T03:50:44;6.47;;;6.18;;
23590;SDS011;11973;52.098;7.582;2023-05-10T03:53:09;6.43;;;6.20;;
23590;SDS011;11973;52.098;7.582;2023-05-10T03:55:35;6.85;;;6.55;;
23590;SDS011;11973;52.098;7.582;2023-05-10T03:58:01;6.53;;;6.22;;
23590;SDS011;11973;52.098;7.582;2023-05-10T04:00:27;6.93;;;6.72;;
23590;SDS011;11973;52.098;7.582;2023-05-10T04:02:54;7.20;;;7.00;;
23590;SDS011;11973;52.098;7.582;2023-05-10T04:05:20;8.20;;;7.75;;
23590;SDS011;11973;52.098;7.582;2023-05-10T04:07:45;7.80;;;7.60;;
23590;SDS011;11973;52.098;7.582;2023-05-10T04:10:12;8.93;;;8.45;;
23590;SDS011;11973;52.098;7.582;2023-05-10T04:12:37;8.40;;;8.00;;
23590;SDS011;11973;52.098;7.582;2023-05-10T04:15:03;10.43;;;9.70;;
23590;SDS011;11973;52.098;7.582;2023-05-10T04:17:29;10.40;;;9.65;;
23590;SDS011;11973;52.098;7.582;2023-05-10T04:19:56;9.77;;;9.07;;
23590;SDS011;11973;52.098;7.582;2023-05-10T04:22:21;9.95;;;9.30;;
23590;SDS011;11973;52.098;7.582;2023-05-10T04:24:47;10.02;;;9.32;;
23590;SDS011;11973;52.098;7.582;2023-05-10T04:27:13;11.35;;;9.75;;
23590;SDS011;11973;52.098;7.582;2023-05-10T04:29:38;9.75;;;9.15;;
23590;SDS011;11973;52.098;7.582;2023-05-10T04:32:04;9.90;;;9.07;;
23590;SDS011;11973;52.098;7.582;2023-05-10T04:34:30;10.40;;;9.63;;
23590;SDS011;11973;52.098;7.582;2023-05-10T04:36:56;10.30;;;9.63;;
23590;SDS011;11973;52.098;7.582;2023-05-10T04:39:21;10.45;;;9.65;;
23590;SDS011;11973;52.098;7.582;2023-05-10T04:41:47;10.85;;;9.90;;
23590;SDS011;11973;52.098;7.582;2023-05-10T04:44:13;10.77;;;9.88;;
23590;SDS011;11973;52.098;7.582;2023-05-10T04:46:38;11.30;;;10.40;;
23590;SDS011;11973;52.098;7.582;2023-05-10T04:49:04;10.95;;;10.25;;
23590;SDS011;11973;52.098;7.582;2023-05-10T04:51:30;11.32;;;10.43;;
23590;SDS011;11973;52.098;7.582;2023-05-10T04:53:56;11.85;;;10.65;;
23590;SDS011;11973;52.098;7.582;2023-05-10T04:56:22;10.77;;;10.07;;
23590;SDS011;11973;52.098;7.582;2023-05-10T04:58:48;11.25;;;10.23;;
23590;SDS011;11973;52.098;7.582;2023-05-10T05:01:14;11.30;;;10.25;;
23590;SDS011;11973;52.098;7.582;2023-05-10T05:03:40;11.98;;;10.98;;
23590;SDS011;11973;52.098;7.582;2023-05-10T05:06:06;10.82;;;10.00;;
23590;SDS011;11973;52.098;7.582;2023-05-10T05:08:31;11.65;;;10.65;;
23590;SDS011;11973;52.098;7.582;2023-05-10T05:10:57;11.10;;;10.20;;
23590;SDS011;11973;52.098;7.582;2023-05-10T05:13:24;11.38;;;10.48;;
23590;SDS011;11973;52.098;7.582;2023-05-10T05:15:50;12.13;;;10.98;;
23590;SDS011;11973;52.098;7.582;2023-05-10T05:18:15;11.98;;;10.80;;
23590;SDS011;11973;52.098;7.582;2023-05-10T05:20:41;11.52;;;10.45;;
23590;SDS011;11973;52.098;7.582;2023-05-10T05:23:07;12.20;;;11.10;;
23590;SDS011;11973;52.098;7.582;2023-05-10T05:25:32;12.38;;;10.85;;
23590;SDS011;11973;52.098;7.582;2023-05-10T05:27:58;11.68;;;10.32;;
23590;SDS011;11973;52.098;7.582;2023-05-10T05:30:24;12.13;;;11.02;;
23590;SDS011;11973;52.098;7.582;2023-05-10T05:32:50;12.35;;;11.23;;
23590;SDS011;11973;52.098;7.582;2023-05-10T05:35:15;13.48;;;12.18;;
23590;SDS011;11973;52.098;7.582;2023-05-10T05:37:41;15.13;;;12.00;;
23590;SDS011;11973;52.098;7.582;2023-05-10T05:40:07;14.85;;;11.95;;
23590;SDS011;11973;52.098;7.582;2023-05-10T05:42:33;13.57;;;12.13;;
23590;SDS011;11973;52.098;7.582;2023-05-10T05:44:59;15.85;;;12.48;;
23590;SDS011;11973;52.098;7.582;2023-05-10T05:47:24;14.48;;;12.75;;
23590;SDS011;11973;52.098;7.582;2023-05-10T05:49:50;16.55;;;13.00;;
23590;SDS011;11973;52.098;7.582;2023-05-10T05:52:16;19.63;;;13.80;;
23590;SDS011;11973;52.098;7.582;2023-05-10T05:54:41;20.52;;;14.63;;
23590;SDS011;11973;52.098;7.582;2023-05-10T05:57:07;22.85;;;14.93;;
23590;SDS011;11973;52.098;7.582;2023-05-10T05:59:33;18.83;;;14.55;;
23590;SDS011;11973;52.098;7.582;2023-05-10T06:01:59;22.67;;;15.70;;
23590;SDS011;11973;52.098;7.582;2023-05-10T06:04:25;26.00;;;17.33;;
23590;SDS011;11973;52.098;7.582;2023-05-10T06:06:51;24.80;;;17.88;;
23590;SDS011;11973;52.098;7.582;2023-05-10T06:09:16;28.52;;;17.75;;
23590;SDS011;11973;52.098;7.582;2023-05-10T06:11:42;27.60;;;18.23;;
23590;SDS011;11973;52.098;7.582;2023-05-10T06:14:08;26.70;;;17.58;;
23590;SDS011;11973;52.098;7.582;2023-05-10T06:16:34;33.40;;;19.17;;
23590;SDS011;11973;52.098;7.582;2023-05-10T06:19:00;31.95;;;18.80;;
23590;SDS011;11973;52.098;7.582;2023-05-10T06:21:26;33.90;;;19.40;;
23590;SDS011;11973;52.098;7.582;2023-05-10T06:23:51;32.95;;;19.33;;
23590;SDS011;11973;52.098;7.582;2023-05-10T06:26:17;33.17;;;21.05;;
23590;SDS011;11973;52.098;7.582;2023-05-10T06:28:43;39.53;;;21.80;;
23590;SDS011;11973;52.098;7.582;2023-05-10T06:31:08;37.47;;;21.73;;
23590;SDS011;11973;52.098;7.582;2023-05-10T06:33:36;39.47;;;21.13;;
23590;SDS011;11973;52.098;7.582;2023-05-10T06:36:02;41.28;;;22.67;;
23590;SDS011;11973;52.098;7.582;2023-05-10T06:38:28;41.25;;;23.30;;
23590;SDS011;11973;52.098;7.582;2023-05-10T06:40:53;39.83;;;22.55;;
23590;SDS011;11973;52.098;7.582;2023-05-10T06:43:19;45.80;;;24.50;;
23590;SDS011;11973;52.098;7.582;2023-05-10T06:45:45;45.97;;;24.30;;
23590;SDS011;11973;52.098;7.582;2023-05-10T06:48:11;45.10;;;24.48;;
23590;SDS011;11973;52.098;7.582;2023-05-10T06:50:36;48.53;;;25.35;;
23590;SDS011;11973;52.098;7.582;2023-05-10T06:53:02;48.38;;;24.70;;
23590;SDS011;11973;52.098;7.582;2023-05-10T06:55:28;49.20;;;25.17;;
23590;SDS011;11973;52.098;7.582;2023-05-10T06:57:54;51.38;;;26.10;;
23590;SDS011;11973;52.098;7.582;2023-05-10T07:00:20;55.92;;;26.65;;
23590;SDS011;11973;52.098;7.582;2023-05-10T07:02:46;51.30;;;26.08;;
23590;SDS011;11973;52.098;7.582;2023-05-10T07:05:12;50.25;;;26.08;;
23590;SDS011;11973;52.098;7.582;2023-05-10T07:07:38;48.00;;;26.75;;
23590;SDS011;11973;52.098;7.582;2023-05-10T07:10:04;49.33;;;25.90;;
23590;SDS011;11973;52.098;7.582;2023-05-10T07:12:30;49.97;;;25.88;;
23590;SDS011;11973;52.098;7.582;2023-05-10T07:14:56;51.13;;;25.80;;
23590;SDS011;11973;52.098;7.582;2023-05-10T07:17:21;48.83;;;25.30;;
23590;SDS011;11973;52.098;7.582;2023-05-10T07:19:47;46.50;;;25.05;;
23590;SDS011;11973;52.098;7.582;2023-05-10T07:22:14;46.50;;;25.40;;
23590;SDS011;11973;52.098;7.582;2023-05-10T07:24:40;44.25;;;24.83;;
23590;SDS011;11973;52.098;7.582;2023-05-10T07:27:06;48.05;;;26.10;;
23590;SDS011;11973;52.098;7.582;2023-05-10T07:29:32;45.28;;;25.70;;
23590;SDS011;11973;52.098;7.582;2023-05-10T07:31:58;44.45;;;26.13;;
23590;SDS011;11973;52.098;7.582;2023-05-10T07:34:23;47.20;;;27.20;;
23590;SDS011;11973;52.098;7.582;2023-05-10T07:36:49;43.83;;;26.85;;
23590;SDS011;11973;52.098;7.582;2023-05-10T07:39:15;47.20;;;26.38;;
23590;SDS011;11973;52.098;7.582;2023-05-10T07:41:41;40.88;;;25.27;;
23590;SDS011;11973;52.098;7.582;2023-05-10T07:44:07;42.67;;;26.02;;
23590;SDS011;11973;52.098;7.582;2023-05-10T07:46:33;40.10;;;24.88;;
23590;SDS011;11973;52.098;7.582;2023-05-10T07:48:58;37.97;;;24.33;;
23590;SDS011;11973;52.098;7.582;2023-05-10T07:51:24;35.78;;;24.25;;
23590;SDS011;11973;52.098;7.582;2023-05-10T07:53:50;40.40;;;24.70;;
23590;SDS011;11973;52.098;7.582;2023-05-10T07:58:48;41.53;;;25.55;;
23590;SDS011;11973;52.098;7.582;2023-05-10T08:01:14;38.45;;;25.95;;
23590;SDS011;11973;52.098;7.582;2023-05-10T08:03:39;42.85;;;25.05;;
23590;SDS011;11973;52.098;7.582;2023-05-10T08:06:05;40.13;;;24.20;;
23590;SDS011;11973;52.098;7.582;2023-05-10T08:08:31;34.33;;;22.63;;
23590;SDS011;11973;52.098;7.582;2023-05-10T08:10:56;36.83;;;23.95;;
23590;SDS011;11973;52.098;7.582;2023-05-10T08:13:22;34.63;;;23.92;;
23590;SDS011;11973;52.098;7.582;2023-05-10T08:15:48;36.15;;;23.90;;
23590;SDS011;11973;52.098;7.582;2023-05-10T08:18:13;35.97;;;23.88;;
23590;SDS011;11973;52.098;7.582;2023-05-10T08:20:39;33.53;;;24.00;;
23590;SDS011;11973;52.098;7.582;2023-05-10T08:23:05;33.75;;;23.17;;
23590;SDS011;11973;52.098;7.582;2023-05-10T08:25:31;34.60;;;23.50;;
23590;SDS011;11973;52.098;7.582;2023-05-10T08:27:56;33.78;;;23.30;;
23590;SDS011;11973;52.098;7.582;2023-05-10T08:30:22;31.95;;;23.17;;
23590;SDS011;11973;52.098;7.582;2023-05-10T08:32:48;31.90;;;21.48;;
23590;SDS011;11973;52.098;7.582;2023-05-10T08:35:15;31.52;;;22.23;;
23590;SDS011;11973;52.098;7.582;2023-05-10T08:37:41;32.20;;;22.30;;
23590;SDS011;11973;52.098;7.582;2023-05-10T08:40:07;29.85;;;21.42;;
23590;SDS011;11973;52.098;7.582;2023-05-10T08:42:36;28.13;;;20.90;;
23590;SDS011;11973;52.098;7.582;2023-05-10T08:45:07;30.48;;;22.20;;
23590;SDS011;11973;52.098;7.582;2023-05-10T08:47:34;36.70;;;22.05;;
23590;SDS011;11973;52.098;7.582;2023-05-10T08:50:03;30.58;;;22.80;;
23590;SDS011;11973;52.098;7.582;2023-05-10T08:52:30;35.47;;;22.83;;
23590;SDS011;11973;52.098;7.582;2023-05-10T08:54:57;33.55;;;23.80;;
23590;SDS011;11973;52.098;7.582;2023-05-10T08:57:23;30.65;;;21.42;;
23590;SDS011;11973;52.098;7.582;2023-05-10T08:59:49;36.78;;;22.15;;
23590;SDS011;11973;52.098;7.582;2023-05-10T09:02:15;30.35;;;22.27;;
23590;SDS011;11973;52.098;7.582;2023-05-10T09:04:43;32.53;;;22.48;;
23590;SDS011;11973;52.098;7.582;2023-05-10T09:07:09;31.35;;;21.33;;
23590;SDS011;11973;52.098;7.582;2023-05-10T09:09:35;30.67;;;20.50;;
23590;SDS011;11973;52.098;7.582;2023-05-10T09:12:02;29.88;;;21.30;;
23590;SDS011;11973;52.098;7.582;2023-05-10T09:14:27;30.60;;;21.00;;
23590;SDS011;11973;52.098;7.582;2023-05-10T09:16:55;29.35;;;20.17;;
23590;SDS011;11973;52.098;7.582;2023-05-10T09:19:21;27.42;;;19.38;;
23590;SDS011;11973;52.098;7.582;2023-05-10T09:21:47;28.60;;;20.15;;
23590;SDS011;11973;52.098;7.582;2023-05-10T09:24:14;29.92;;;19.23;;
23590;SDS011;11973;52.098;7.582;2023-05-10T09:26:46;22.92;;;17.33;;
23590;SDS011;11973;52.098;7.582;2023-05-10T09:29:15;23.15;;;17.52;;
23590;SDS011;11973;52.098;7.582;2023-05-10T09:34:19;25.50;;;18.17;;
23590;SDS011;11973;52.098;7.582;2023-05-10T09:36:56;23.02;;;17.73;;
23590;SDS011;11973;52.098;7.582;2023-05-10T09:39:29;26.02;;;16.88;;
23590;SDS011;11973;52.098;7.582;2023-05-10T09:41:57;23.40;;;16.20;;
23590;SDS011;11973;52.098;7.582;2023-05-10T09:44:25;20.48;;;16.30;;
23590;SDS011;11973;52.098;7.582;2023-05-10T09:46:51;22.00;;;16.33;;
23590;SDS011;11973;52.098;7.582;2023-05-10T09:49:18;23.33;;;15.70;;
23590;SDS011;11973;52.098;7.582;2023-05-10T09:51:45;24.20;;;16.48;;
23590;SDS011;11973;52.098;7.582;2023-05-10T09:54:15;20.65;;;16.23;;
23590;SDS011;11973;52.098;7.582;2023-05-10T09:56:42;22.55;;;16.98;;
23590;SDS011;11973;52.098;7.582;2023-05-10T09:59:09;23.20;;;17.30;;
23590;SDS011;11973;52.098;7.582;2023-05-10T10:01:37;22.73;;;17.90;;
23590;SDS011;11973;52.098;7.582;2023-05-10T10:04:06;23.52;;;17.85;;
23590;SDS011;11973;52.098;7.582;2023-05-10T10:06:37;23.52;;;17.95;;
23590;SDS011;11973;52.098;7.582;2023-05-10T10:09:04;26.10;;;18.13;;
23590;SDS011;11973;52.098;7.582;2023-05-10T10:11:31;25.02;;;18.13;;
23590;SDS011;11973;52.098;7.582;2023-05-10T10:13:57;22.55;;;16.90;;
23590;SDS011;11973;52.098;7.582;2023-05-10T10:16:24;24.92;;;17.40;;
23590;SDS011;11973;52.098;7.582;2023-05-10T10:18:50;24.10;;;16.92;;
23590;SDS011;11973;52.098;7.582;2023-05-10T10:21:15;25.67;;;17.30;;
23590;SDS011;11973;52.098;7.582;2023-05-10T10:23:42;20.42;;;15.60;;
23590;SDS011;11973;52.098;7.582;2023-05-10T10:26:08;20.92;;;15.82;;
23590;SDS011;11973;52.098;7.582;2023-05-10T10:28:41;24.17;;;16.17;;
23590;SDS011;11973;52.098;7.582;2023-05-10T10:31:45;24.90;;;17.55;;
23590;SDS011;11973;52.098;7.582;2023-05-10T10:34:24;22.10;;;17.27;;
23590;SDS011;11973;52.098;7.582;2023-05-10T10:36:55;21.88;;;16.98;;
23590;SDS011;11973;52.098;7.582;2023-05-10T10:39:22;20.90;;;16.60;;
23590;SDS011;11973;52.098;7.582;2023-05-10T10:41:52;20.63;;;15.85;;
23590;SDS011;11973;52.098;7.582;2023-05-10T10:47:07;20.95;;;16.48;;
23590;SDS011;11973;52.098;7.582;2023-05-10T10:52:32;21.67;;;16.70;;
23590;SDS011;11973;52.098;7.582;2023-05-10T10:55:03;21.45;;;15.95;;
23590;SDS011;11973;52.098;7.582;2023-05-10T11:10:36;20.05;;;15.60;;
23590;SDS011;11973;52.098;7.582;2023-05-10T11:13:02;20.40;;;14.73;;
23590;SDS011;11973;52.098;7.582;2023-05-10T11:15:33;16.40;;;13.65;;
23590;SDS011;11973;52.098;7.582;2023-05-10T11:21:04;15.20;;;13.10;;
23590;SDS011;11973;52.098;7.582;2023-05-10T11:26:09;16.55;;;14.77;;
23590;SDS011;11973;52.098;7.582;2023-05-10T11:28:41;20.35;;;15.23;;
23590;SDS011;11973;52.098;7.582;2023-05-10T11:31:07;19.10;;;14.93;;
23590;SDS011;11973;52.098;7.582;2023-05-10T11:33:42;14.23;;;12.70;;
23590;SDS011;11973;52.098;7.582;2023-05-10T11:36:15;14.07;;;12.55;;
23590;SDS011;11973;52.098;7.582;2023-05-10T11:38:43;16.08;;;12.32;;
23590;SDS011;11973;52.098;7.582;2023-05-10T11:41:09;15.38;;;12.55;;
23590;SDS011;11973;52.098;7.582;2023-05-10T11:43:36;13.30;;;12.05;;
23590;SDS011;11973;52.098;7.582;2023-05-10T11:46:07;14.38;;;12.73;;
23590;SDS011;11973;52.098;7.582;2023-05-10T11:48:35;15.45;;;13.50;;
23590;SDS011;11973;52.098;7.582;2023-05-10T11:51:03;15.05;;;13.45;;
23590;SDS011;11973;52.098;7.582;2023-05-10T11:53:30;16.80;;;14.68;;
23590;SDS011;11973;52.098;7.582;2023-05-10T11:56:06;16.30;;;14.52;;
23590;SDS011;11973;52.098;7.582;2023-05-10T11:58:33;17.58;;;14.30;;
23590;SDS011;11973;52.098;7.582;2023-05-10T12:00:59;14.48;;;12.98;;
23590;SDS011;11973;52.098;7.582;2023-05-10T12:03:26;17.25;;;13.68;;
23590;SDS011;11973;52.098;7.582;2023-05-10T12:05:52;14.38;;;12.35;;
23590;SDS011;11973;52.098;7.582;2023-05-10T12:08:23;15.65;;;13.77;;
23590;SDS011;11973;52.098;7.582;2023-05-10T12:10:51;15.07;;;13.30;;
23590;SDS011;11973;52.098;7.582;2023-05-10T12:13:17;14.48;;;12.57;;
23590;SDS011;11973;52.098;7.582;2023-05-10T12:15:45;12.77;;;11.55;;
23590;SDS011;11973;52.098;7.582;2023-05-10T12:18:11;13.50;;;12.07;;
23590;SDS011;11973;52.098;7.582;2023-05-10T12:20:38;13.88;;;12.48;;
23590;SDS011;11973;52.098;7.582;2023-05-10T12:23:05;14.57;;;13.05;;
23590;SDS011;11973;52.098;7.582;2023-05-10T12:25:33;16.17;;;13.45;;
23590;SDS011;11973;52.098;7.582;2023-05-10T12:28:00;19.75;;;14.35;;
23590;SDS011;11973;52.098;7.582;2023-05-10T12:30:29;17.80;;;14.15;;
23590;SDS011;11973;52.098;7.582;2023-05-10T12:33:07;16.55;;;14.80;;
23590;SDS011;11973;52.098;7.582;2023-05-10T12:35:43;19.27;;;15.57;;
23590;SDS011;11973;52.098;7.582;2023-05-10T12:41:00;20.17;;;15.60;;
23590;SDS011;11973;52.098;7.582;2023-05-10T12:43:28;21.45;;;16.33;;
23590;SDS011;11973;52.098;7.582;2023-05-10T12:45:54;16.92;;;15.15;;
23590;SDS011;11973;52.098;7.582;2023-05-10T12:48:19;18.30;;;15.05;;
23590;SDS011;11973;52.098;7.582;2023-05-10T12:50:46;17.63;;;15.82;;
23590;SDS011;11973;52.098;7.582;2023-05-10T12:53:15;19.25;;;15.52;;
23590;SDS011;11973;52.098;7.582;2023-05-10T12:55:42;18.95;;;15.88;;
23590;SDS011;11973;52.098;7.582;2023-05-10T12:58:08;18.98;;;14.93;;
23590;SDS011;11973;52.098;7.582;2023-05-10T13:00:34;19.05;;;14.70;;
23590;SDS011;11973;52.098;7.582;2023-05-10T13:02:59;19.80;;;15.73;;
23590;SDS011;11973;52.098;7.582;2023-05-10T13:05:25;15.57;;;13.82;;
23590;SDS011;11973;52.098;7.582;2023-05-10T13:07:51;17.75;;;13.35;;
23590;SDS011;11973;52.098;7.582;2023-05-10T13:10:16;17.85;;;14.48;;
23590;SDS011;11973;52.098;7.582;2023-05-10T13:12:42;17.75;;;15.50;;
23590;SDS011;11973;52.098;7.582;2023-05-10T13:15:08;19.92;;;15.43;;
23590;SDS011;11973;52.098;7.582;2023-05-10T13:17:34;17.75;;;15.40;;
23590;SDS011;11973;52.098;7.582;2023-05-10T13:19:59;16.80;;;14.30;;
23590;SDS011;11973;52.098;7.582;2023-05-10T13:22:25;18.45;;;15.48;;
23590;SDS011;11973;52.098;7.582;2023-05-10T13:24:51;17.42;;;15.57;;
23590;SDS011;11973;52.098;7.582;2023-05-10T13:27:17;16.02;;;14.32;;
23590;SDS011;11973;52.098;7.582;2023-05-10T13:29:42;19.52;;;15.57;;
23590;SDS011;11973;52.098;7.582;2023-05-10T13:32:08;15.88;;;14.25;;
23590;SDS011;11973;52.098;7.582;2023-05-10T13:34:33;15.77;;;14.07;;
23590;SDS011;11973;52.098;7.582;2023-05-10T13:37:00;17.85;;;14.85;;
23590;SDS011;11973;52.098;7.582;2023-05-10T13:39:26;15.48;;;12.82;;
23590;SDS011;11973;52.098;7.582;2023-05-10T13:41:52;13.57;;;11.95;;
23590;SDS011;11973;52.098;7.582;2023-05-10T13:44:19;13.20;;;11.80;;
23590;SDS011;11973;52.098;7.582;2023-05-10T13:46:45;12.77;;;11.52;;
23590;SDS011;11973;52.098;7.582;2023-05-10T13:49:11;13.18;;;11.50;;
23590;SDS011;11973;52.098;7.582;2023-05-10T13:51:37;15.98;;;11.10;;
23590;SDS011;11973;52.098;7.582;2023-05-10T13:54:03;11.25;;;10.32;;
23590;SDS011;11973;52.098;7.582;2023-05-10T13:56:28;12.48;;;10.52;;
23590;SDS011;11973;52.098;7.582;2023-05-10T13:58:56;11.38;;;10.13;;
23590;SDS011;11973;52.098;7.582;2023-05-10T14:01:22;11.23;;;10.10;;
23590;SDS011;11973;52.098;7.582;2023-05-10T14:03:48;12.25;;;11.05;;
23590;SDS011;11973;52.098;7.582;2023-05-10T14:06:14;13.35;;;10.90;;
23590;SDS011;11973;52.098;7.582;2023-05-10T14:08:39;15.02;;;12.43;;
23590;SDS011;11973;52.098;7.582;2023-05-10T14:11:05;14.65;;;12.55;;
23590;SDS011;11973;52.098;7.582;2023-05-10T14:13:31;18.60;;;13.63;;
23590;SDS011;11973;52.098;7.582;2023-05-10T14:15:56;14.90;;;12.65;;
23590;SDS011;11973;52.098;7.582;2023-05-10T14:18:23;18.50;;;13.73;;
23590;SDS011;11973;52.098;7.582;2023-05-10T14:20:49;15.63;;;13.13;;
23590;SDS011;11973;52.098;7.582;2023-05-10T14:23:15;17.00;;;12.57;;
23590;SDS011;11973;52.098;7.582;2023-05-10T14:25:40;14.73;;;13.10;;
23590;SDS011;11973;52.098;7.582;2023-05-10T14:28:06;14.93;;;12.25;;
23590;SDS011;11973;52.098;7.582;2023-05-10T14:30:32;11.27;;;10.07;;
23590;SDS011;11973;52.098;7.582;2023-05-10T14:32:59;11.00;;;10.00;;
23590;SDS011;11973;52.098;7.582;2023-05-10T14:35:27;11.60;;;10.48;;
23590;SDS011;11973;52.098;7.582;2023-05-10T14:37:53;11.15;;;10.02;;
23590;SDS011;11973;52.098;7.582;2023-05-10T14:40:18;16.45;;;11.32;;
23590;SDS011;11973;52.098;7.582;2023-05-10T14:42:44;13.18;;;11.77;;
23590;SDS011;11973;52.098;7.582;2023-05-10T14:45:10;12.57;;;11.10;;
23590;SDS011;11973;52.098;7.582;2023-05-10T14:47:38;14.13;;;12.65;;
23590;SDS011;11973;52.098;7.582;2023-05-10T14:50:12;14.75;;;12.82;;
23590;SDS011;11973;52.098;7.582;2023-05-10T14:52:41;13.77;;;12.25;;
23590;SDS011;11973;52.098;7.582;2023-05-10T14:55:10;15.18;;;12.20;;
23590;SDS011;11973;52.098;7.582;2023-05-10T14:57:36;12.75;;;11.63;;
23590;SDS011;11973;52.098;7.582;2023-05-10T15:00:05;14.75;;;11.68;;
23590;SDS011;11973;52.098;7.582;2023-05-10T15:02:34;13.65;;;12.23;;
23590;SDS011;11973;52.098;7.582;2023-05-10T15:05:02;13.90;;;12.02;;
23590;SDS011;11973;52.098;7.582;2023-05-10T15:07:49;12.75;;;11.45;;
23590;SDS011;11973;52.098;7.582;2023-05-10T15:10:14;13.93;;;12.48;;
23590;SDS011;11973;52.098;7.582;2023-05-10T15:12:46;14.27;;;12.88;;
23590;SDS011;11973;52.098;7.582;2023-05-10T15:15:12;13.57;;;11.25;;
23590;SDS011;11973;52.098;7.582;2023-05-10T15:17:38;11.70;;;10.43;;
23590;SDS011;11973;52.098;7.582;2023-05-10T15:20:05;11.32;;;10.10;;
23590;SDS011;11973;52.098;7.582;2023-05-10T15:22:38;11.15;;;10.13;;
23590;SDS011;11973;52.098;7.582;2023-05-10T15:25:15;9.32;;;8.63;;
23590;SDS011;11973;52.098;7.582;2023-05-10T15:27:41;9.50;;;8.70;;
23590;SDS011;11973;52.098;7.582;2023-05-10T15:30:09;9.57;;;8.80;;
23590;SDS011;11973;52.098;7.582;2023-05-10T15:32:36;9.07;;;8.25;;
23590;SDS011;11973;52.098;7.582;2023-05-10T15:35:04;8.55;;;7.97;;
23590;SDS011;11973;52.098;7.582;2023-05-10T15:37:33;9.20;;;8.35;;
23590;SDS011;11973;52.098;7.582;2023-05-10T15:39:59;9.20;;;8.40;;
23590;SDS011;11973;52.098;7.582;2023-05-10T15:42:34;9.25;;;8.30;;
23590;SDS011;11973;52.098;7.582;2023-05-10T15:45:00;8.80;;;8.18;;
23590;SDS011;11973;52.098;7.582;2023-05-10T15:47:35;9.95;;;9.07;;
23590;SDS011;11973;52.098;7.582;2023-05-10T15:50:14;8.48;;;7.80;;
23590;SDS011;11973;52.098;7.582;2023-05-10T15:52:52;9.23;;;8.52;;
23590;SDS011;11973;52.098;7.582;2023-05-10T15:55:26;8.80;;;8.13;;
23590;SDS011;11973;52.098;7.582;2023-05-10T15:57:51;9.23;;;8.63;;
23590;SDS011;11973;52.098;7.582;2023-05-10T16:00:20;8.60;;;7.80;;
23590;SDS011;11973;52.098;7.582;2023-05-10T16:02:55;9.18;;;8.35;;
23590;SDS011;11973;52.098;7.582;2023-05-10T16:05:27;9.50;;;8.68;;
23590;SDS011;11973;52.098;7.582;2023-05-10T16:07:56;9.65;;;8.73;;
23590;SDS011;11973;52.098;7.582;2023-05-10T16:10:35;9.40;;;8.70;;
23590;SDS011;11973;52.098;7.582;2023-05-10T16:13:07;8.82;;;8.02;;
23590;SDS011;11973;52.098;7.582;2023-05-10T16:15:36;9.63;;;8.73;;
23590;SDS011;11973;52.098;7.582;2023-05-10T16:18:04;11.48;;;9.25;;
23590;SDS011;11973;52.098;7.582;2023-05-10T16:20:40;10.70;;;9.05;;
23590;SDS011;11973;52.098;7.582;2023-05-10T16:23:09;8.52;;;7.93;;
23590;SDS011;11973;52.098;7.582;2023-05-10T16:25:36;10.18;;;9.27;;
23590;SDS011;11973;52.098;7.582;2023-05-10T16:28:11;8.25;;;7.57;;
23590;SDS011;11973;52.098;7.582;2023-05-10T16:30:43;7.93;;;7.45;;
23590;SDS011;11973;52.098;7.582;2023-05-10T16:33:17;8.93;;;8.23;;
23590;SDS011;11973;52.098;7.582;2023-05-10T16:35:51;8.38;;;7.88;;
23590;SDS011;11973;52.098;7.582;2023-05-10T16:38:20;8.07;;;7.50;;
23590;SDS011;11973;52.098;7.582;2023-05-10T16:40:51;8.30;;;7.90;;
23590;SDS011;11973;52.098;7.582;2023-05-10T16:43:17;8.40;;;7.80;;
23590;SDS011;11973;52.098;7.582;2023-05-10T16:45:43;7.68;;;7.15;;
23590;SDS011;11973;52.098;7.582;2023-05-10T16:48:09;8.27;;;7.53;;
23590;SDS011;11973;52.098;7.582;2023-05-10T16:50:34;8.70;;;8.07;;
23590;SDS011;11973;52.098;7.582;2023-05-10T16:53:00;8.77;;;8.07;;
23590;SDS011;11973;52.098;7.582;2023-05-10T16:55:26;8.68;;;7.97;;
23590;SDS011;11973;52.098;7.582;2023-05-10T16:57:52;8.57;;;8.07;;
23590;SDS011;11973;52.098;7.582;2023-05-10T17:00:24;7.97;;;7.47;;
23590;SDS011;11973;52.098;7.582;2023-05-10T17:02:49;8.82;;;7.95;;
23590;SDS011;11973;52.098;7.582;2023-05-10T17:05:15;8.18;;;7.55;;
23590;SDS011;11973;52.098;7.582;2023-05-10T17:07:43;8.65;;;7.75;;
23590;SDS011;11973;52.098;7.582;2023-05-10T17:10:12;7.72;;;7.32;;
23590;SDS011;11973;52.098;7.582;2023-05-10T17:12:42;8.15;;;7.45;;
23590;SDS011;11973;52.098;7.582;2023-05-10T17:15:09;8.18;;;7.57;;
23590;SDS011;11973;52.098;7.582;2023-05-10T17:17:35;7.25;;;7.03;;
23590;SDS011;11973;52.098;7.582;2023-05-10T17:20:01;7.88;;;7.28;;
23590;SDS011;11973;52.098;7.582;2023-05-10T17:22:29;9.88;;;7.63;;
23590;SDS011;11973;52.098;7.582;2023-05-10T17:24:55;9.00;;;7.32;;
23590;SDS011;11973;52.098;7.582;2023-05-10T17:27:20;7.65;;;6.95;;
23590;SDS011;11973;52.098;7.582;2023-05-10T17:29:46;7.30;;;6.80;;
23590;SDS011;11973;52.098;7.582;2023-05-10T17:32:12;8.02;;;7.40;;
23590;SDS011;11973;52.098;7.582;2023-05-10T17:34:40;8.00;;;7.30;;
23590;SDS011;11973;52.098;7.582;2023-05-10T17:37:07;7.45;;;6.85;;
23590;SDS011;11973;52.098;7.582;2023-05-10T17:39:33;7.40;;;6.88;;
23590;SDS011;11973;52.098;7.582;2023-05-10T17:41:59;7.80;;;7.30;;
23590;SDS011;11973;52.098;7.582;2023-05-10T17:44:25;8.98;;;6.82;;
23590;SDS011;11973;52.098;7.582;2023-05-10T17:46:51;7.30;;;6.68;;
23590;SDS011;11973;52.098;7.582;2023-05-10T17:49:16;6.90;;;6.50;;
23590;SDS011;11973;52.098;7.582;2023-05-10T17:51:42;6.70;;;6.28;;
23590;SDS011;11973;52.098;7.582;2023-05-10T17:54:08;5.53;;;5.43;;
23590;SDS011;11973;52.098;7.582;2023-05-10T17:56:34;5.35;;;5.15;;
23590;SDS011;11973;52.098;7.582;2023-05-10T17:59:01;5.38;;;5.18;;
23590;SDS011;11973;52.098;7.582;2023-05-10T18:01:27;5.05;;;4.88;;
23590;SDS011;11973;52.098;7.582;2023-05-10T18:03:52;5.18;;;5.07;;
23590;SDS011;11973;52.098;7.582;2023-05-10T18:06:18;5.38;;;5.05;;
23590;SDS011;11973;52.098;7.582;2023-05-10T18:08:44;5.00;;;4.80;;
23590;SDS011;11973;52.098;7.582;2023-05-10T18:11:09;5.10;;;4.90;;
23590;SDS011;11973;52.098;7.582;2023-05-10T18:13:35;5.00;;;4.80;;
23590;SDS011;11973;52.098;7.582;2023-05-10T18:16:01;4.88;;;4.68;;
23590;SDS011;11973;52.098;7.582;2023-05-10T18:18:29;4.95;;;4.63;;
23590;SDS011;11973;52.098;7.582;2023-05-10T18:20:54;4.80;;;4.60;;
23590;SDS011;11973;52.098;7.582;2023-05-10T18:23:21;4.65;;;4.45;;
23590;SDS011;11973;52.098;7.582;2023-05-10T18:25:48;5.45;;;5.15;;
23590;SDS011;11973;52.098;7.582;2023-05-10T18:28:15;4.40;;;4.30;;
23590;SDS011;11973;52.098;7.582;2023-05-10T18:30:40;4.40;;;4.20;;
23590;SDS011;11973;52.098;7.582;2023-05-10T18:33:06;4.30;;;4.10;;
23590;SDS011;11973;52.098;7.582;2023-05-10T18:35:32;4.60;;;4.40;;
23590;SDS011;11973;52.098;7.582;2023-05-10T18:38:01;5.10;;;4.65;;
23590;SDS011;11973;52.098;7.582;2023-05-10T18:40:27;5.13;;;4.78;;
23590;SDS011;11973;52.098;7.582;2023-05-10T18:42:53;4.68;;;4.55;;
23590;SDS011;11973;52.098;7.582;2023-05-10T18:45:22;5.40;;;5.18;;